sensor_id;sensor_type;location;lat;lon;timestamp;pressure;altitude;pressure_sealevel;temperature;humidity
80749;BME280;70145;53.746;9.970;2023-12-14T00:01:11;100692.06;;;2.88;62.62
80749;BME280;70145;53.746;9.970;2023-12-14T00:03:38;100695.81;;;2.84;62.61
80749;BME280;70145;53.746;9.970;2023-12-14T00:06:04;100706.38;;;2.86;62.91
80749;BME280;70145;53.746;9.970;2023-12-14T00:08:29;100703.78;;;2.84;63.04
80749;BME280;70145;53.746;9.970;2023-12-14T00:10:54;100703.13;;;2.81;62.98
80749;BME280;70145;53.746;9.970;2023-12-14T00:13:20;100705.94;;;2.78;63.27
80749;BME280;70145;53.746;9.970;2023-12-14T00:15:45;100706.09;;;2.75;63.37
80749;BME280;70145;53.746;9.970;2023-12-14T00:18:10;100704.31;;;2.75;63.40
80749;BME280;70145;53.746;9.970;2023-12-14T00:20:35;100719.00;;;2.65;63.56
80749;BME280;70145;53.746;9.970;2023-12-14T00:23:01;100721.50;;;2.68;63.45
80749;BME280;70145;53.746;9.970;2023-12-14T00:25:26;100727.94;;;2.64;63.49
80749;BME280;70145;53.746;9.970;2023-12-14T00:27:51;100728.63;;;2.68;63.40
80749;BME280;70145;53.746;9.970;2023-12-14T00:30:17;100735.75;;;2.67;63.52
80749;BME280;70145;53.746;9.970;2023-12-14T00:32:42;100743.56;;;2.70;63.58
80749;BME280;70145;53.746;9.970;2023-12-14T00:35:07;100749.03;;;2.67;63.48
80749;BME280;70145;53.746;9.970;2023-12-14T00:37:33;100753.41;;;2.68;63.11
80749;BME280;70145;53.746;9.970;2023-12-14T00:39:58;100753.19;;;2.73;63.80
80749;BME280;70145;53.746;9.970;2023-12-14T00:42:23;100760.16;;;2.75;63.42
80749;BME280;70145;53.746;9.970;2023-12-14T00:44:48;100749.31;;;2.78;63.22
80749;BME280;70145;53.746;9.970;2023-12-14T00:47:14;100764.38;;;2.79;63.11
80749;BME280;70145;53.746;9.970;2023-12-14T00:49:39;100769.06;;;2.74;63.49
80749;BME280;70145;53.746;9.970;2023-12-14T00:52:04;100770.00;;;2.73;63.87
80749;BME280;70145;53.746;9.970;2023-12-14T00:54:30;100784.25;;;2.72;63.49
80749;BME280;70145;53.746;9.970;2023-12-14T00:56:56;100776.78;;;2.79;63.68
80749;BME280;70145;53.746;9.970;2023-12-14T00:59:21;100776.63;;;2.82;63.38
80749;BME280;70145;53.746;9.970;2023-12-14T01:01:46;100780.47;;;2.76;63.40
80749;BME280;70145;53.746;9.970;2023-12-14T01:04:12;100792.38;;;2.69;63.55
80749;BME280;70145;53.746;9.970;2023-12-14T01:06:37;100793.31;;;2.68;64.10
80749;BME280;70145;53.746;9.970;2023-12-14T01:09:02;100797.84;;;2.66;63.74
80749;BME280;70145;53.746;9.970;2023-12-14T01:11:28;100806.84;;;2.64;63.75
80749;BME280;70145;53.746;9.970;2023-12-14T01:13:53;100802.53;;;2.61;64.01
80749;BME280;70145;53.746;9.970;2023-12-14T01:16:18;100805.34;;;2.58;63.66
80749;BME280;70145;53.746;9.970;2023-12-14T01:18:43;100794.41;;;2.64;63.93
80749;BME280;70145;53.746;9.970;2023-12-14T01:21:09;100799.78;;;2.63;63.55
80749;BME280;70145;53.746;9.970;2023-12-14T01:23:34;100805.03;;;2.64;63.50
80749;BME280;70145;53.746;9.970;2023-12-14T01:25:59;100798.00;;;2.63;63.63
80749;BME280;70145;53.746;9.970;2023-12-14T01:28:25;100821.00;;;2.64;63.62
80749;BME280;70145;53.746;9.970;2023-12-14T01:30:50;100820.53;;;2.56;63.43
80749;BME280;70145;53.746;9.970;2023-12-14T01:33:15;100823.97;;;2.58;64.05
80749;BME280;70145;53.746;9.970;2023-12-14T01:35:41;100829.75;;;2.66;63.46
80749;BME280;70145;53.746;9.970;2023-12-14T01:38:06;100838.91;;;2.61;64.07
80749;BME280;70145;53.746;9.970;2023-12-14T01:40:31;100837.81;;;2.65;63.61
80749;BME280;70145;53.746;9.970;2023-12-14T01:43:09;100840.63;;;2.62;63.63
80749;BME280;70145;53.746;9.970;2023-12-14T01:45:38;100845.38;;;2.55;64.31
80749;BME280;70145;53.746;9.970;2023-12-14T01:48:04;100840.22;;;2.52;63.91
80749;BME280;70145;53.746;9.970;2023-12-14T01:50:29;100838.19;;;2.57;63.75
80749;BME280;70145;53.746;9.970;2023-12-14T01:52:55;100836.19;;;2.62;63.78
80749;BME280;70145;53.746;9.970;2023-12-14T01:55:20;100840.72;;;2.60;63.85
80749;BME280;70145;53.746;9.970;2023-12-14T01:57:45;100843.06;;;2.66;64.14
80749;BME280;70145;53.746;9.970;2023-12-14T02:03:02;100853.13;;;2.60;64.07
80749;BME280;70145;53.746;9.970;2023-12-14T02:05:28;100849.56;;;2.61;64.36
80749;BME280;70145;53.746;9.970;2023-12-14T02:07:53;100847.28;;;2.53;64.32
80749;BME280;70145;53.746;9.970;2023-12-14T02:10:18;100859.09;;;2.48;64.36
80749;BME280;70145;53.746;9.970;2023-12-14T02:12:43;100864.78;;;2.57;64.00
80749;BME280;70145;53.746;9.970;2023-12-14T02:15:09;100869.72;;;2.48;64.34
80749;BME280;70145;53.746;9.970;2023-12-14T02:17:34;100861.56;;;2.51;64.66
80749;BME280;70145;53.746;9.970;2023-12-14T02:20:00;100861.47;;;2.52;64.32
80749;BME280;70145;53.746;9.970;2023-12-14T02:22:26;100863.91;;;2.57;63.88
80749;BME280;70145;53.746;9.970;2023-12-14T02:24:51;100869.22;;;2.57;64.35
80749;BME280;70145;53.746;9.970;2023-12-14T02:27:17;100869.00;;;2.44;64.67
80749;BME280;70145;53.746;9.970;2023-12-14T02:29:42;100873.94;;;2.52;64.50
80749;BME280;70145;53.746;9.970;2023-12-14T02:32:08;100871.13;;;2.55;64.31
80749;BME280;70145;53.746;9.970;2023-12-14T02:34:33;100874.78;;;2.52;64.08
80749;BME280;70145;53.746;9.970;2023-12-14T02:36:58;100875.94;;;2.47;64.46
80749;BME280;70145;53.746;9.970;2023-12-14T02:39:24;100878.00;;;2.59;64.18
80749;BME280;70145;53.746;9.970;2023-12-14T02:41:49;100883.25;;;2.60;63.82
80749;BME280;70145;53.746;9.970;2023-12-14T02:44:14;100882.31;;;2.61;64.10
80749;BME280;70145;53.746;9.970;2023-12-14T02:46:40;100880.75;;;2.57;64.30
80749;BME280;70145;53.746;9.970;2023-12-14T02:49:05;100900.59;;;2.50;63.92
80749;BME280;70145;53.746;9.970;2023-12-14T02:51:30;100898.25;;;2.61;63.95
80749;BME280;70145;53.746;9.970;2023-12-14T02:53:56;100895.75;;;2.58;64.00
80749;BME280;70145;53.746;9.970;2023-12-14T02:56:22;100903.19;;;2.52;64.27
80749;BME280;70145;53.746;9.970;2023-12-14T02:58:47;100910.13;;;2.54;64.12
80749;BME280;70145;53.746;9.970;2023-12-14T03:01:18;100917.81;;;2.60;63.68
80749;BME280;70145;53.746;9.970;2023-12-14T03:03:44;100919.69;;;2.58;63.93
80749;BME280;70145;53.746;9.970;2023-12-14T03:06:09;100920.19;;;2.66;63.76
80749;BME280;70145;53.746;9.970;2023-12-14T03:08:34;100922.03;;;2.64;63.67
80749;BME280;70145;53.746;9.970;2023-12-14T03:11:00;100928.22;;;2.65;63.63
80749;BME280;70145;53.746;9.970;2023-12-14T03:13:25;100929.25;;;2.62;63.35
80749;BME280;70145;53.746;9.970;2023-12-14T03:15:50;100930.75;;;2.68;63.56
80749;BME280;70145;53.746;9.970;2023-12-14T03:18:16;100929.88;;;2.67;63.75
80749;BME280;70145;53.746;9.970;2023-12-14T03:20:41;100929.06;;;2.65;63.63
80749;BME280;70145;53.746;9.970;2023-12-14T03:23:06;100935.25;;;2.66;63.50
80749;BME280;70145;53.746;9.970;2023-12-14T03:25:32;100931.59;;;2.68;63.38
80749;BME280;70145;53.746;9.970;2023-12-14T03:27:57;100933.19;;;2.72;63.44
80749;BME280;70145;53.746;9.970;2023-12-14T03:30:22;100927.00;;;2.72;62.95
80749;BME280;70145;53.746;9.970;2023-12-14T03:32:47;100940.50;;;2.67;63.33
80749;BME280;70145;53.746;9.970;2023-12-14T03:35:13;100940.66;;;2.64;63.16
80749;BME280;70145;53.746;9.970;2023-12-14T03:37:38;100948.94;;;2.58;63.15
80749;BME280;70145;53.746;9.970;2023-12-14T03:40:04;100942.38;;;2.65;63.65
80749;BME280;70145;53.746;9.970;2023-12-14T03:42:30;100945.34;;;2.59;63.66
80749;BME280;70145;53.746;9.970;2023-12-14T03:44:55;100950.53;;;2.62;63.52
80749;BME280;70145;53.746;9.970;2023-12-14T03:47:21;100953.00;;;2.65;63.28
80749;BME280;70145;53.746;9.970;2023-12-14T03:49:46;100960.06;;;2.66;63.11
80749;BME280;70145;53.746;9.970;2023-12-14T03:52:11;100962.88;;;2.63;63.19
80749;BME280;70145;53.746;9.970;2023-12-14T03:54:37;100967.31;;;2.63;63.08
80749;BME280;70145;53.746;9.970;2023-12-14T03:57:02;100957.13;;;2.54;63.41
80749;BME280;70145;53.746;9.970;2023-12-14T03:59:27;100960.19;;;2.46;63.99
80749;BME280;70145;53.746;9.970;2023-12-14T04:01:53;100960.66;;;2.54;63.28
80749;BME280;70145;53.746;9.970;2023-12-14T04:04:18;100964.81;;;2.60;63.13
80749;BME280;70145;53.746;9.970;2023-12-14T04:06:43;100965.53;;;2.63;63.34
80749;BME280;70145;53.746;9.970;2023-12-14T04:09:09;100962.94;;;2.62;63.21
80749;BME280;70145;53.746;9.970;2023-12-14T04:11:35;100963.03;;;2.60;63.89
80749;BME280;70145;53.746;9.970;2023-12-14T04:14:00;100973.00;;;2.55;63.57
80749;BME280;70145;53.746;9.970;2023-12-14T04:16:26;100987.09;;;2.57;63.58
80749;BME280;70145;53.746;9.970;2023-12-14T04:18:51;100983.00;;;2.50;63.81
80749;BME280;70145;53.746;9.970;2023-12-14T04:21:16;100986.38;;;2.54;63.76
80749;BME280;70145;53.746;9.970;2023-12-14T04:23:41;100988.19;;;2.53;64.02
80749;BME280;70145;53.746;9.970;2023-12-14T04:26:07;100990.13;;;2.50;63.84
80749;BME280;70145;53.746;9.970;2023-12-14T04:28:34;100991.00;;;2.50;63.85
80749;BME280;70145;53.746;9.970;2023-12-14T04:31:00;100993.66;;;2.50;63.83
80749;BME280;70145;53.746;9.970;2023-12-14T04:33:25;101000.81;;;2.48;63.66
80749;BME280;70145;53.746;9.970;2023-12-14T04:35:50;101001.75;;;2.47;63.68
80749;BME280;70145;53.746;9.970;2023-12-14T04:38:15;101005.06;;;2.52;63.48
80749;BME280;70145;53.746;9.970;2023-12-14T04:40:41;101008.50;;;2.54;63.49
80749;BME280;70145;53.746;9.970;2023-12-14T04:43:07;101015.13;;;2.46;63.92
80749;BME280;70145;53.746;9.970;2023-12-14T04:45:32;101018.00;;;2.41;63.86
80749;BME280;70145;53.746;9.970;2023-12-14T04:47:58;101020.16;;;2.33;63.98
80749;BME280;70145;53.746;9.970;2023-12-14T04:50:23;101023.31;;;2.41;64.42
80749;BME280;70145;53.746;9.970;2023-12-14T04:52:48;101024.41;;;2.37;64.14
80749;BME280;70145;53.746;9.970;2023-12-14T04:55:14;101024.41;;;2.37;63.91
80749;BME280;70145;53.746;9.970;2023-12-14T04:57:39;101031.22;;;2.43;63.46
80749;BME280;70145;53.746;9.970;2023-12-14T05:00:05;101031.34;;;2.40;63.84
80749;BME280;70145;53.746;9.970;2023-12-14T05:02:31;101034.69;;;2.45;63.78
80749;BME280;70145;53.746;9.970;2023-12-14T05:04:57;101042.59;;;2.46;63.24
80749;BME280;70145;53.746;9.970;2023-12-14T05:07:22;101038.84;;;2.50;63.36
80749;BME280;70145;53.746;9.970;2023-12-14T05:09:49;101052.41;;;2.44;63.30
80749;BME280;70145;53.746;9.970;2023-12-14T05:12:14;101049.91;;;2.41;64.10
80749;BME280;70145;53.746;9.970;2023-12-14T05:14:39;101056.84;;;2.44;63.57
80749;BME280;70145;53.746;9.970;2023-12-14T05:17:05;101060.25;;;2.47;63.77
80749;BME280;70145;53.746;9.970;2023-12-14T05:19:32;101057.53;;;2.49;63.50
80749;BME280;70145;53.746;9.970;2023-12-14T05:21:58;101067.28;;;2.48;63.48
80749;BME280;70145;53.746;9.970;2023-12-14T05:24:24;101073.88;;;2.40;63.90
80749;BME280;70145;53.746;9.970;2023-12-14T05:26:50;101073.75;;;2.43;63.58
80749;BME280;70145;53.746;9.970;2023-12-14T05:29:15;101081.22;;;2.35;64.18
80749;BME280;70145;53.746;9.970;2023-12-14T05:31:42;101084.72;;;2.35;64.13
80749;BME280;70145;53.746;9.970;2023-12-14T05:34:07;101075.97;;;2.33;63.93
80749;BME280;70145;53.746;9.970;2023-12-14T05:36:33;101084.59;;;2.38;63.91
80749;BME280;70145;53.746;9.970;2023-12-14T05:38:58;101086.31;;;2.39;63.86
80749;BME280;70145;53.746;9.970;2023-12-14T05:41:23;101098.69;;;2.40;63.79
80749;BME280;70145;53.746;9.970;2023-12-14T05:43:49;101102.44;;;2.36;64.03
80749;BME280;70145;53.746;9.970;2023-12-14T05:46:23;101105.41;;;2.29;64.21
80749;BME280;70145;53.746;9.970;2023-12-14T05:48:49;101102.56;;;2.33;63.88
80749;BME280;70145;53.746;9.970;2023-12-14T05:51:31;101108.16;;;2.27;64.13
80749;BME280;70145;53.746;9.970;2023-12-14T05:53:57;101116.47;;;2.18;64.60
80749;BME280;70145;53.746;9.970;2023-12-14T05:56:22;101114.44;;;2.25;64.13
80749;BME280;70145;53.746;9.970;2023-12-14T05:58:48;101126.81;;;2.26;64.16
80749;BME280;70145;53.746;9.970;2023-12-14T06:01:16;101124.28;;;2.23;64.09
80749;BME280;70145;53.746;9.970;2023-12-14T06:03:41;101125.75;;;2.30;64.28
80749;BME280;70145;53.746;9.970;2023-12-14T06:06:07;101129.47;;;2.26;64.11
80749;BME280;70145;53.746;9.970;2023-12-14T06:08:32;101138.03;;;2.32;64.00
80749;BME280;70145;53.746;9.970;2023-12-14T06:10:57;101133.59;;;2.33;64.16
80749;BME280;70145;53.746;9.970;2023-12-14T06:13:23;101131.94;;;2.30;64.02
80749;BME280;70145;53.746;9.970;2023-12-14T06:15:48;101135.16;;;2.37;63.64
80749;BME280;70145;53.746;9.970;2023-12-14T06:18:15;101137.88;;;2.35;63.69
80749;BME280;70145;53.746;9.970;2023-12-14T06:20:40;101138.69;;;2.37;64.19
80749;BME280;70145;53.746;9.970;2023-12-14T06:23:06;101150.09;;;2.39;63.78
80749;BME280;70145;53.746;9.970;2023-12-14T06:25:31;101143.94;;;2.39;64.14
80749;BME280;70145;53.746;9.970;2023-12-14T06:27:56;101152.75;;;2.39;63.89
80749;BME280;70145;53.746;9.970;2023-12-14T06:30:22;101155.78;;;2.32;64.17
80749;BME280;70145;53.746;9.970;2023-12-14T06:32:47;101166.28;;;2.35;63.83
80749;BME280;70145;53.746;9.970;2023-12-14T06:35:13;101169.84;;;2.34;64.09
80749;BME280;70145;53.746;9.970;2023-12-14T06:37:38;101168.88;;;2.36;63.88
80749;BME280;70145;53.746;9.970;2023-12-14T06:40:04;101171.53;;;2.36;64.15
80749;BME280;70145;53.746;9.970;2023-12-14T06:42:29;101174.03;;;2.39;63.88
80749;BME280;70145;53.746;9.970;2023-12-14T06:44:55;101174.25;;;2.35;64.12
80749;BME280;70145;53.746;9.970;2023-12-14T06:47:21;101176.69;;;2.39;63.74
80749;BME280;70145;53.746;9.970;2023-12-14T06:49:46;101179.41;;;2.38;63.81
80749;BME280;70145;53.746;9.970;2023-12-14T06:52:11;101181.94;;;2.41;63.63
80749;BME280;70145;53.746;9.970;2023-12-14T06:54:37;101187.31;;;2.39;63.94
80749;BME280;70145;53.746;9.970;2023-12-14T06:57:02;101189.28;;;2.36;63.73
80749;BME280;70145;53.746;9.970;2023-12-14T06:59:27;101190.84;;;2.40;64.24
80749;BME280;70145;53.746;9.970;2023-12-14T07:01:53;101199.84;;;2.37;63.89
80749;BME280;70145;53.746;9.970;2023-12-14T07:04:18;101207.31;;;2.28;64.07
80749;BME280;70145;53.746;9.970;2023-12-14T07:06:55;101203.63;;;2.32;64.12
80749;BME280;70145;53.746;9.970;2023-12-14T07:09:20;101209.53;;;2.38;63.95
80749;BME280;70145;53.746;9.970;2023-12-14T07:11:46;101212.06;;;2.41;63.59
80749;BME280;70145;53.746;9.970;2023-12-14T07:14:12;101221.63;;;2.45;63.31
80749;BME280;70145;53.746;9.970;2023-12-14T07:16:37;101234.06;;;2.45;63.57
80749;BME280;70145;53.746;9.970;2023-12-14T07:19:03;101250.78;;;2.47;63.58
80749;BME280;70145;53.746;9.970;2023-12-14T07:21:28;101243.16;;;2.39;63.86
80749;BME280;70145;53.746;9.970;2023-12-14T07:23:53;101250.84;;;2.45;63.54
80749;BME280;70145;53.746;9.970;2023-12-14T07:26:19;101257.94;;;2.46;63.49
80749;BME280;70145;53.746;9.970;2023-12-14T07:28:44;101258.63;;;2.50;63.40
80749;BME280;70145;53.746;9.970;2023-12-14T07:31:10;101262.31;;;2.47;63.50
80749;BME280;70145;53.746;9.970;2023-12-14T07:33:35;101267.63;;;2.47;63.77
80749;BME280;70145;53.746;9.970;2023-12-14T07:36:00;101271.09;;;2.49;63.56
80749;BME280;70145;53.746;9.970;2023-12-14T07:38:26;101265.69;;;2.51;63.33
80749;BME280;70145;53.746;9.970;2023-12-14T07:40:51;101272.81;;;2.50;63.38
80749;BME280;70145;53.746;9.970;2023-12-14T07:43:17;101274.66;;;2.48;63.36
80749;BME280;70145;53.746;9.970;2023-12-14T07:45:42;101279.84;;;2.51;63.49
80749;BME280;70145;53.746;9.970;2023-12-14T07:48:08;101284.44;;;2.48;63.51
80749;BME280;70145;53.746;9.970;2023-12-14T07:50:33;101292.38;;;2.49;63.37
80749;BME280;70145;53.746;9.970;2023-12-14T07:52:58;101293.34;;;2.47;63.44
80749;BME280;70145;53.746;9.970;2023-12-14T07:55:24;101287.25;;;2.45;63.48
80749;BME280;70145;53.746;9.970;2023-12-14T07:57:49;101287.31;;;2.43;63.23
80749;BME280;70145;53.746;9.970;2023-12-14T08:00:15;101295.34;;;2.42;63.46
80749;BME280;70145;53.746;9.970;2023-12-14T08:02:41;101295.34;;;2.42;63.32
80749;BME280;70145;53.746;9.970;2023-12-14T08:05:07;101305.84;;;2.45;63.45
80749;BME280;70145;53.746;9.970;2023-12-14T08:07:34;101311.22;;;2.43;63.42
80749;BME280;70145;53.746;9.970;2023-12-14T08:09:59;101314.84;;;2.41;63.12
80749;BME280;70145;53.746;9.970;2023-12-14T08:12:25;101314.78;;;2.42;63.44
80749;BME280;70145;53.746;9.970;2023-12-14T08:14:51;101315.59;;;2.44;63.35
80749;BME280;70145;53.746;9.970;2023-12-14T08:17:16;101329.09;;;2.40;63.25
80749;BME280;70145;53.746;9.970;2023-12-14T08:19:42;101329.97;;;2.40;63.38
80749;BME280;70145;53.746;9.970;2023-12-14T08:22:08;101334.28;;;2.43;63.45
80749;BME280;70145;53.746;9.970;2023-12-14T08:24:36;101337.13;;;2.38;63.39
80749;BME280;70145;53.746;9.970;2023-12-14T08:27:02;101344.50;;;2.32;63.38
80749;BME280;70145;53.746;9.970;2023-12-14T08:29:28;101348.94;;;2.31;63.62
80749;BME280;70145;53.746;9.970;2023-12-14T08:31:53;101349.25;;;2.24;63.69
80749;BME280;70145;53.746;9.970;2023-12-14T08:34:22;101364.88;;;2.31;63.82
80749;BME280;70145;53.746;9.970;2023-12-14T08:36:48;101359.50;;;2.33;63.24
80749;BME280;70145;53.746;9.970;2023-12-14T08:39:13;101362.00;;;2.37;63.31
80749;BME280;70145;53.746;9.970;2023-12-14T08:41:38;101361.00;;;2.40;63.31
80749;BME280;70145;53.746;9.970;2023-12-14T08:44:03;101372.50;;;2.40;63.36
80749;BME280;70145;53.746;9.970;2023-12-14T08:46:38;101383.84;;;2.44;64.01
80749;BME280;70145;53.746;9.970;2023-12-14T08:49:03;101383.00;;;2.43;63.15
80749;BME280;70145;53.746;9.970;2023-12-14T08:51:29;101382.13;;;2.43;63.30
80749;BME280;70145;53.746;9.970;2023-12-14T08:53:55;101390.03;;;2.44;63.20
80749;BME280;70145;53.746;9.970;2023-12-14T08:56:20;101396.19;;;2.46;63.26
80749;BME280;70145;53.746;9.970;2023-12-14T08:58:46;101399.81;;;2.44;63.23
80749;BME280;70145;53.746;9.970;2023-12-14T09:01:11;101403.34;;;2.44;63.05
80749;BME280;70145;53.746;9.970;2023-12-14T09:03:36;101401.50;;;2.46;63.17
80749;BME280;70145;53.746;9.970;2023-12-14T09:06:02;101397.84;;;2.49;62.98
80749;BME280;70145;53.746;9.970;2023-12-14T09:08:30;101401.69;;;2.42;63.25
80749;BME280;70145;53.746;9.970;2023-12-14T09:10:55;101392.59;;;2.47;63.07
80749;BME280;70145;53.746;9.970;2023-12-14T09:13:21;101404.41;;;2.40;63.44
80749;BME280;70145;53.746;9.970;2023-12-14T09:15:46;101406.06;;;2.43;63.25
80749;BME280;70145;53.746;9.970;2023-12-14T09:18:11;101415.63;;;2.47;63.59
80749;BME280;70145;53.746;9.970;2023-12-14T09:20:37;101416.50;;;2.47;63.05
80749;BME280;70145;53.746;9.970;2023-12-14T09:23:02;101415.03;;;2.40;63.47
80749;BME280;70145;53.746;9.970;2023-12-14T09:25:28;101420.34;;;2.40;63.26
80749;BME280;70145;53.746;9.970;2023-12-14T09:27:53;101423.06;;;2.39;63.37
80749;BME280;70145;53.746;9.970;2023-12-14T09:30:18;101429.22;;;2.39;63.46
80749;BME280;70145;53.746;9.970;2023-12-14T09:32:44;101425.66;;;2.40;63.41
80749;BME280;70145;53.746;9.970;2023-12-14T09:35:09;101426.78;;;2.35;63.66
80749;BME280;70145;53.746;9.970;2023-12-14T09:37:34;101432.81;;;2.38;63.35
80749;BME280;70145;53.746;9.970;2023-12-14T09:40:00;101428.31;;;2.40;63.56
80749;BME280;70145;53.746;9.970;2023-12-14T09:42:26;101432.69;;;2.41;63.36
80749;BME280;70145;53.746;9.970;2023-12-14T09:44:52;101439.88;;;2.39;63.34
80749;BME280;70145;53.746;9.970;2023-12-14T09:47:17;101437.09;;;2.42;63.42
80749;BME280;70145;53.746;9.970;2023-12-14T09:49:43;101443.22;;;2.44;63.51
80749;BME280;70145;53.746;9.970;2023-12-14T09:52:10;101443.16;;;2.46;63.40
80749;BME280;70145;53.746;9.970;2023-12-14T09:54:35;101444.03;;;2.46;63.44
80749;BME280;70145;53.746;9.970;2023-12-14T09:57:00;101447.47;;;2.48;63.58
80749;BME280;70145;53.746;9.970;2023-12-14T09:59:26;101446.41;;;2.52;62.94
80749;BME280;70145;53.746;9.970;2023-12-14T10:01:51;101445.50;;;2.53;63.39
80749;BME280;70145;53.746;9.970;2023-12-14T10:04:18;101442.72;;;2.56;62.79
80749;BME280;70145;53.746;9.970;2023-12-14T10:06:45;101446.13;;;2.60;63.11
80749;BME280;70145;53.746;9.970;2023-12-14T10:09:11;101462.13;;;2.58;63.19
80749;BME280;70145;53.746;9.970;2023-12-14T10:11:44;101464.84;;;2.57;63.39
80749;BME280;70145;53.746;9.970;2023-12-14T10:14:23;101464.72;;;2.60;62.40
80749;BME280;70145;53.746;9.970;2023-12-14T10:16:50;101467.56;;;2.55;63.39
80749;BME280;70145;53.746;9.970;2023-12-14T10:19:17;101474.53;;;2.59;63.17
80749;BME280;70145;53.746;9.970;2023-12-14T10:21:43;101478.97;;;2.59;63.53
80749;BME280;70145;53.746;9.970;2023-12-14T10:24:08;101477.25;;;2.58;63.23
80749;BME280;70145;53.746;9.970;2023-12-14T10:26:33;101478.97;;;2.59;63.28
80749;BME280;70145;53.746;9.970;2023-12-14T10:28:58;101481.44;;;2.63;63.23
80749;BME280;70145;53.746;9.970;2023-12-14T10:31:24;101485.03;;;2.62;63.21
80749;BME280;70145;53.746;9.970;2023-12-14T10:33:51;101481.44;;;2.63;63.15
80749;BME280;70145;53.746;9.970;2023-12-14T10:36:21;101492.09;;;2.63;62.83
80749;BME280;70145;53.746;9.970;2023-12-14T10:38:52;101490.38;;;2.62;62.99
80749;BME280;70145;53.746;9.970;2023-12-14T10:41:17;101493.81;;;2.64;63.17
80749;BME280;70145;53.746;9.970;2023-12-14T10:43:43;101503.50;;;2.65;62.82
80749;BME280;70145;53.746;9.970;2023-12-14T10:46:10;101511.38;;;2.68;63.09
80749;BME280;70145;53.746;9.970;2023-12-14T10:48:36;101509.53;;;2.70;62.77
80749;BME280;70145;53.746;9.970;2023-12-14T10:51:02;101513.00;;;2.72;63.31
80749;BME280;70145;53.746;9.970;2023-12-14T10:53:28;101520.28;;;2.67;62.73
80749;BME280;70145;53.746;9.970;2023-12-14T10:55:55;101524.66;;;2.68;62.91
80749;BME280;70145;53.746;9.970;2023-12-14T10:58:23;101525.59;;;2.67;63.06
80749;BME280;70145;53.746;9.970;2023-12-14T11:01:07;101529.09;;;2.69;63.13
80749;BME280;70145;53.746;9.970;2023-12-14T11:03:33;101527.19;;;2.71;63.17
80749;BME280;70145;53.746;9.970;2023-12-14T11:06:00;101532.47;;;2.73;63.42
80749;BME280;70145;53.746;9.970;2023-12-14T11:08:25;101536.94;;;2.72;63.00
80749;BME280;70145;53.746;9.970;2023-12-14T11:11:01;101544.84;;;2.74;63.10
80749;BME280;70145;53.746;9.970;2023-12-14T11:13:35;101544.75;;;2.77;63.10
80749;BME280;70145;53.746;9.970;2023-12-14T11:16:01;101555.28;;;2.78;62.95
80749;BME280;70145;53.746;9.970;2023-12-14T11:18:27;101556.03;;;2.82;63.22
80749;BME280;70145;53.746;9.970;2023-12-14T11:21:00;101559.69;;;2.79;62.58
80749;BME280;70145;53.746;9.970;2023-12-14T11:23:28;101559.75;;;2.78;62.34
80749;BME280;70145;53.746;9.970;2023-12-14T11:26:03;101558.78;;;2.80;63.14
80749;BME280;70145;53.746;9.970;2023-12-14T11:28:40;101569.41;;;2.80;62.94
80749;BME280;70145;53.746;9.970;2023-12-14T11:31:11;101569.28;;;2.83;62.92
80749;BME280;70145;53.746;9.970;2023-12-14T11:33:37;101576.34;;;2.84;62.91
80749;BME280;70145;53.746;9.970;2023-12-14T11:36:03;101579.81;;;2.86;62.70
80749;BME280;70145;53.746;9.970;2023-12-14T11:38:29;101586.06;;;2.85;62.77
80749;BME280;70145;53.746;9.970;2023-12-14T11:40:55;101586.84;;;2.87;62.55
80749;BME280;70145;53.746;9.970;2023-12-14T11:43:21;101590.41;;;2.88;62.79
80749;BME280;70145;53.746;9.970;2023-12-14T11:45:47;101591.28;;;2.88;62.49
80749;BME280;70145;53.746;9.970;2023-12-14T11:48:13;101585.00;;;2.89;62.66
80749;BME280;70145;53.746;9.970;2023-12-14T11:50:42;101602.94;;;2.84;62.73
80749;BME280;70145;53.746;9.970;2023-12-14T11:53:08;101603.75;;;2.86;62.25
80749;BME280;70145;53.746;9.970;2023-12-14T11:55:34;101606.66;;;2.80;62.67
80749;BME280;70145;53.746;9.970;2023-12-14T11:58:00;101602.16;;;2.82;62.36
80749;BME280;70145;53.746;9.970;2023-12-14T12:00:27;101604.75;;;2.84;62.06
80749;BME280;70145;53.746;9.970;2023-12-14T12:05:45;101596.84;;;2.82;62.62
80749;BME280;70145;53.746;9.970;2023-12-14T12:08:11;101599.59;;;2.79;62.53
80749;BME280;70145;53.746;9.970;2023-12-14T12:10:38;101600.91;;;2.69;62.25
80749;BME280;70145;53.746;9.970;2023-12-14T12:13:06;101606.22;;;2.69;63.09
80749;BME280;70145;53.746;9.970;2023-12-14T12:15:33;101599.97;;;2.70;62.38
80749;BME280;70145;53.746;9.970;2023-12-14T12:18:23;101590.94;;;2.74;62.41
80749;BME280;70145;53.746;9.970;2023-12-14T12:20:47;101583.06;;;2.71;62.58
80749;BME280;70145;53.746;9.970;2023-12-14T12:23:13;101583.19;;;2.68;62.71
80749;BME280;70145;53.746;9.970;2023-12-14T12:25:38;101592.81;;;2.72;61.91
80749;BME280;70145;53.746;9.970;2023-12-14T12:28:03;101598.84;;;2.76;62.36
80749;BME280;70145;53.746;9.970;2023-12-14T12:30:29;101599.91;;;2.72;62.45
80749;BME280;70145;53.746;9.970;2023-12-14T12:32:54;101595.47;;;2.72;62.45
80749;BME280;70145;53.746;9.970;2023-12-14T12:35:23;101597.00;;;2.78;62.59
80749;BME280;70145;53.746;9.970;2023-12-14T12:37:49;101602.28;;;2.79;62.38
80749;BME280;70145;53.746;9.970;2023-12-14T12:40:19;101605.72;;;2.81;62.43
80749;BME280;70145;53.746;9.970;2023-12-14T12:42:45;101617.19;;;2.83;62.24
80749;BME280;70145;53.746;9.970;2023-12-14T12:45:13;101617.19;;;2.83;62.28
80749;BME280;70145;53.746;9.970;2023-12-14T12:47:38;101612.78;;;2.82;62.41
80749;BME280;70145;53.746;9.970;2023-12-14T12:50:04;101608.19;;;2.86;62.26
80749;BME280;70145;53.746;9.970;2023-12-14T12:52:32;101610.84;;;2.86;62.64
80749;BME280;70145;53.746;9.970;2023-12-14T12:54:57;101615.22;;;2.88;61.83
80749;BME280;70145;53.746;9.970;2023-12-14T12:57:23;101613.41;;;2.89;62.51
80749;BME280;70145;53.746;9.970;2023-12-14T12:59:48;101615.94;;;2.92;62.22